createdAt,value
2022-07-26T00:01:45.183Z,2.42
2022-07-26T00:04:19.836Z,2.45
2022-07-26T00:07:03.566Z,2.35
2022-07-26T00:09:34.519Z,2.50
2022-07-26T00:12:06.421Z,2.22
2022-07-26T00:14:38.243Z,3.00
2022-07-26T00:17:11.213Z,2.40
2022-07-26T00:19:42.653Z,2.42
2022-07-26T00:22:27.313Z,2.52
2022-07-26T00:24:58.719Z,2.45
2022-07-26T00:27:30.238Z,2.30
2022-07-26T00:30:01.379Z,2.17
2022-07-26T00:32:33.063Z,2.55
2022-07-26T00:35:04.509Z,2.42
2022-07-26T00:37:35.926Z,2.20
2022-07-26T00:40:07.895Z,2.35
2022-07-26T00:42:40.432Z,2.50
2022-07-26T00:45:13.564Z,2.08
2022-07-26T00:47:45.337Z,2.70
2022-07-26T00:50:18.627Z,2.58
2022-07-26T00:52:51.178Z,2.17
2022-07-26T00:55:22.336Z,2.70
2022-07-26T00:57:53.750Z,2.92
2022-07-26T01:00:30.069Z,2.60
2022-07-26T01:03:01.349Z,2.58
2022-07-26T01:05:33.310Z,2.50
2022-07-26T01:08:05.111Z,2.60
2022-07-26T01:10:38.001Z,2.70
2022-07-26T01:13:08.940Z,2.60
2022-07-26T01:15:41.824Z,2.72
2022-07-26T01:18:12.880Z,2.75
2022-07-26T01:20:45.395Z,2.60
2022-07-26T01:23:16.610Z,2.77
2022-07-26T01:25:48.590Z,3.05
2022-07-26T01:28:20.481Z,3.40
2022-07-26T01:30:52.275Z,3.02
2022-07-26T01:33:23.612Z,3.37
2022-07-26T01:35:54.659Z,3.00
2022-07-26T01:38:26.374Z,3.27
2022-07-26T01:40:57.474Z,2.87
2022-07-26T01:43:28.555Z,3.37
2022-07-26T01:46:00.247Z,3.52
2022-07-26T01:48:32.007Z,3.50
2022-07-26T01:51:03.902Z,3.20
2022-07-26T01:53:35.018Z,3.12
2022-07-26T01:56:06.424Z,3.05
2022-07-26T01:58:37.567Z,3.33
2022-07-26T02:01:09.629Z,3.02
2022-07-26T02:03:42.388Z,3.25
2022-07-26T02:06:13.555Z,2.85
2022-07-26T02:08:46.182Z,3.40
2022-07-26T02:11:18.091Z,3.33
2022-07-26T02:13:53.140Z,3.60
2022-07-26T02:16:23.718Z,2.85
2022-07-26T02:18:55.393Z,3.50
2022-07-26T02:21:26.422Z,3.52
2022-07-26T02:23:57.506Z,3.55
2022-07-26T02:26:28.667Z,3.10
2022-07-26T02:28:59.947Z,3.27
2022-07-26T02:31:32.242Z,3.40
2022-07-26T02:34:03.520Z,3.15
2022-07-26T02:36:34.850Z,3.50
2022-07-26T02:39:07.948Z,3.42
2022-07-26T02:41:39.004Z,3.85
2022-07-26T02:44:11.535Z,3.65
2022-07-26T02:46:43.039Z,3.08
2022-07-26T02:49:14.496Z,3.37
2022-07-26T02:51:45.638Z,3.67
2022-07-26T02:54:17.022Z,3.40
2022-07-26T02:56:48.063Z,3.47
2022-07-26T02:59:22.026Z,3.58
2022-07-26T03:01:53.083Z,3.40
2022-07-26T03:04:24.263Z,3.52
2022-07-26T03:06:55.303Z,3.45
2022-07-26T03:09:26.459Z,3.40
2022-07-26T03:11:57.946Z,3.45
2022-07-26T03:14:30.360Z,3.17
2022-07-26T03:17:02.909Z,3.50
2022-07-26T03:19:33.861Z,3.15
2022-07-26T03:22:05.033Z,2.95
2022-07-26T03:24:36.510Z,3.27
2022-07-26T03:27:07.576Z,3.12
2022-07-26T03:29:38.776Z,3.45
2022-07-26T03:32:10.511Z,3.17
2022-07-26T03:34:41.565Z,3.10
2022-07-26T03:37:13.038Z,3.10
2022-07-26T03:39:43.969Z,3.30
2022-07-26T03:42:15.153Z,3.00
2022-07-26T03:44:45.994Z,3.52
2022-07-26T03:47:16.974Z,3.17
2022-07-26T03:49:48.105Z,3.10
2022-07-26T03:52:19.666Z,3.67
2022-07-26T03:54:50.736Z,3.90
2022-07-26T03:57:21.751Z,3.42
2022-07-26T03:59:52.793Z,3.42
2022-07-26T04:02:25.640Z,3.47
2022-07-26T04:04:56.730Z,3.90
2022-07-26T04:07:27.944Z,3.70
2022-07-26T04:09:58.994Z,3.42
2022-07-26T04:12:30.299Z,3.90
2022-07-26T04:15:01.450Z,3.85
2022-07-26T04:17:34.956Z,4.30
2022-07-26T04:20:07.444Z,4.00
2022-07-26T04:22:39.659Z,4.20
2022-07-26T04:25:12.143Z,4.42
2022-07-26T04:27:43.104Z,4.47
2022-07-26T04:30:15.752Z,4.58
2022-07-26T04:32:48.040Z,4.70
2022-07-26T04:35:19.408Z,4.78
2022-07-26T04:37:50.587Z,4.90
2022-07-26T04:40:24.039Z,5.40
2022-07-26T04:42:55.083Z,5.20
2022-07-26T04:45:26.437Z,6.12
2022-07-26T04:47:57.554Z,6.50
2022-07-26T04:50:28.879Z,7.37
2022-07-26T04:53:00.117Z,7.62
2022-07-26T04:55:31.624Z,7.80
2022-07-26T04:58:02.769Z,8.70
2022-07-26T05:00:35.088Z,8.73
2022-07-26T05:03:07.088Z,9.23
2022-07-26T05:05:38.247Z,9.05
2022-07-26T05:08:09.355Z,8.98
2022-07-26T05:10:40.910Z,8.90
2022-07-26T05:13:12.137Z,8.95
2022-07-26T05:15:44.106Z,8.88
2022-07-26T05:18:16.102Z,10.20
2022-07-26T05:20:47.290Z,9.43
2022-07-26T05:23:20.022Z,9.85
2022-07-26T05:25:51.682Z,9.40
2022-07-26T05:28:24.582Z,10.60
2022-07-26T05:30:56.062Z,9.98
2022-07-26T05:33:28.944Z,10.38
2022-07-26T05:36:00.429Z,10.38
2022-07-26T05:38:31.688Z,10.82
2022-07-26T05:41:03.146Z,10.28
2022-07-26T05:43:40.830Z,9.63
2022-07-26T05:46:09.759Z,9.98
2022-07-26T05:48:44.061Z,9.90
2022-07-26T05:51:16.074Z,9.58
2022-07-26T05:53:47.506Z,9.25
2022-07-26T05:56:18.480Z,9.40
2022-07-26T05:58:49.550Z,8.50
2022-07-26T06:01:20.556Z,8.45
2022-07-26T06:03:51.643Z,7.97
2022-07-26T06:06:24.036Z,7.95
2022-07-26T06:08:56.536Z,8.13
2022-07-26T06:11:27.499Z,8.53
2022-07-26T06:13:58.665Z,7.80
2022-07-26T06:16:29.831Z,7.78
2022-07-26T06:19:01.073Z,7.35
2022-07-26T06:21:33.366Z,7.22
2022-07-26T06:24:04.537Z,7.45
2022-07-26T06:26:35.623Z,7.33
2022-07-26T06:29:07.164Z,7.10
2022-07-26T06:31:38.327Z,6.58
2022-07-26T06:34:10.079Z,6.10
2022-07-26T06:36:41.580Z,6.37
2022-07-26T06:39:12.815Z,5.17
2022-07-26T06:41:43.777Z,5.67
2022-07-26T06:44:16.647Z,5.35
2022-07-26T06:46:47.677Z,5.17
2022-07-26T06:49:22.475Z,5.30
2022-07-26T06:51:51.518Z,4.90
2022-07-26T06:54:23.683Z,4.72
2022-07-26T06:56:54.514Z,4.25
2022-07-26T06:59:25.787Z,4.25
2022-07-26T07:02:00.803Z,3.70
2022-07-26T07:04:33.315Z,4.25
2022-07-26T07:07:06.659Z,4.70
2022-07-26T07:09:39.147Z,3.90
2022-07-26T07:12:10.971Z,4.22
2022-07-26T07:14:42.462Z,4.10
2022-07-26T07:17:18.457Z,4.00
2022-07-26T07:19:46.220Z,3.83
2022-07-26T07:22:18.172Z,3.60
2022-07-26T07:24:49.669Z,3.90
2022-07-26T07:27:20.896Z,3.50
2022-07-26T07:29:55.709Z,3.20
2022-07-26T07:32:27.210Z,3.70
2022-07-26T07:34:59.713Z,3.33
2022-07-26T07:37:52.942Z,3.10
2022-07-26T07:40:04.953Z,3.50
2022-07-26T07:42:36.439Z,3.40
2022-07-26T07:45:09.820Z,3.62
2022-07-26T07:47:42.711Z,3.40
2022-07-26T07:50:14.032Z,3.22
2022-07-26T07:52:45.359Z,3.20
2022-07-26T07:55:36.609Z,3.17
2022-07-26T07:57:50.205Z,3.25
2022-07-26T08:00:27.052Z,3.17
2022-07-26T08:02:55.498Z,2.98
2022-07-26T08:05:27.209Z,3.00
2022-07-26T08:07:58.422Z,3.17
2022-07-26T08:10:29.826Z,3.25
2022-07-26T08:13:03.317Z,3.12
2022-07-26T08:15:34.668Z,4.25
2022-07-26T08:18:08.736Z,3.70
2022-07-26T08:20:39.847Z,3.98
2022-07-26T08:23:11.934Z,3.70
2022-07-26T08:25:55.602Z,5.08
2022-07-26T08:28:37.604Z,4.37
2022-07-26T08:30:57.811Z,3.42
2022-07-26T08:33:30.357Z,3.85
2022-07-26T08:36:12.243Z,3.72
2022-07-26T08:38:48.124Z,3.30
2022-07-26T08:41:24.812Z,3.50
2022-07-26T08:43:55.888Z,3.30
2022-07-26T08:46:32.748Z,2.95
2022-07-26T08:49:04.391Z,2.35
2022-07-26T08:51:38.732Z,5.05
2022-07-26T08:54:12.064Z,2.95
2022-07-26T08:56:55.108Z,2.62
2022-07-26T08:59:30.995Z,2.85
2022-07-26T09:02:08.215Z,2.45
2022-07-26T09:04:49.919Z,2.10
2022-07-26T09:07:21.693Z,2.55
2022-07-26T09:10:08.612Z,1.98
2022-07-26T09:12:44.461Z,1.95
2022-07-26T09:15:24.994Z,2.37
2022-07-26T09:17:58.925Z,1.77
2022-07-26T09:20:32.463Z,2.10
2022-07-26T09:23:08.896Z,2.25
2022-07-26T09:25:42.928Z,2.08
2022-07-26T09:28:29.943Z,1.90
2022-07-26T09:31:05.970Z,1.80
2022-07-26T09:33:47.826Z,2.02
2022-07-26T09:36:22.219Z,2.00
2022-07-26T09:38:58.440Z,1.92
2022-07-26T09:41:32.433Z,2.20
2022-07-26T09:44:06.378Z,2.35
2022-07-26T09:46:40.695Z,2.00
2022-07-26T09:49:23.139Z,2.45
2022-07-26T09:51:56.068Z,2.65
2022-07-26T09:54:37.527Z,2.40
2022-07-26T09:57:12.195Z,2.20
2022-07-26T09:59:43.600Z,2.30
2022-07-26T10:02:15.707Z,2.42
2022-07-26T10:04:49.887Z,2.83
2022-07-26T10:07:21.425Z,2.25
2022-07-26T10:09:58.381Z,2.72
2022-07-26T10:12:32.144Z,2.35
2022-07-26T10:15:03.444Z,2.60
2022-07-26T10:17:43.283Z,2.52
2022-07-26T10:20:24.424Z,2.20
2022-07-26T10:22:54.357Z,2.40
2022-07-26T10:25:28.759Z,2.37
2022-07-26T10:28:00.346Z,2.47
2022-07-26T10:30:34.981Z,2.33
2022-07-26T10:33:11.634Z,2.37
2022-07-26T10:35:45.324Z,2.65
2022-07-26T10:38:27.452Z,2.33
2022-07-26T10:41:04.091Z,2.58
2022-07-26T10:43:40.960Z,2.45
2022-07-26T10:46:17.280Z,2.60
2022-07-26T10:49:05.340Z,3.00
2022-07-26T10:51:42.724Z,3.70
2022-07-26T10:54:16.168Z,2.58
2022-07-26T10:56:47.595Z,2.60
2022-07-26T10:59:45.795Z,2.50
2022-07-26T11:01:56.574Z,2.50
2022-07-26T11:04:29.206Z,1.95
2022-07-26T11:07:02.819Z,2.35
2022-07-26T11:09:38.910Z,1.90
2022-07-26T11:12:20.341Z,2.27
2022-07-26T11:14:53.711Z,2.00
2022-07-26T11:17:27.352Z,2.30
2022-07-26T11:19:59.382Z,2.37
2022-07-26T11:22:34.632Z,2.00
2022-07-26T11:27:36.857Z,2.10
2022-07-26T11:30:09.493Z,1.87
2022-07-26T11:32:41.376Z,2.17
2022-07-26T11:35:14.442Z,2.02
2022-07-26T11:38:07.817Z,1.80
2022-07-26T11:40:48.645Z,1.92
2022-07-26T11:43:24.476Z,2.37
2022-07-26T11:46:01.709Z,2.08
